sensor_id;sensor_type;location;lat;lon;timestamp;P1;durP1;ratioP1;P2;durP2;ratioP2
68985;SDS011;56035;37.534;-122.308;2022-10-16T00:01:32;13.90;;;6.07;;
68985;SDS011;56035;37.534;-122.308;2022-10-16T00:04:00;10.73;;;5.57;;
68985;SDS011;56035;37.534;-122.308;2022-10-16T00:06:27;11.60;;;5.78;;
68985;SDS011;56035;37.534;-122.308;2022-10-16T00:08:54;12.15;;;5.85;;
68985;SDS011;56035;37.534;-122.308;2022-10-16T00:13:48;11.15;;;5.80;;
68985;SDS011;56035;37.534;-122.308;2022-10-16T00:16:17;11.75;;;7.10;;
68985;SDS011;56035;37.534;-122.308;2022-10-16T00:18:44;10.48;;;5.68;;
68985;SDS011;56035;37.534;-122.308;2022-10-16T00:21:14;14.00;;;7.00;;
68985;SDS011;56035;37.534;-122.308;2022-10-16T00:23:45;10.65;;;6.53;;
68985;SDS011;56035;37.534;-122.308;2022-10-16T00:26:13;11.20;;;5.63;;
68985;SDS011;56035;37.534;-122.308;2022-10-16T00:28:42;14.93;;;6.65;;
68985;SDS011;56035;37.534;-122.308;2022-10-16T00:31:11;11.75;;;6.25;;
68985;SDS011;56035;37.534;-122.308;2022-10-16T00:33:38;12.13;;;6.38;;
68985;SDS011;56035;37.534;-122.308;2022-10-16T00:36:05;12.30;;;7.20;;
68985;SDS011;56035;37.534;-122.308;2022-10-16T00:38:33;12.95;;;6.13;;
68985;SDS011;56035;37.534;-122.308;2022-10-16T00:40:59;12.27;;;5.93;;
68985;SDS011;56035;37.534;-122.308;2022-10-16T00:43:33;12.05;;;6.65;;
68985;SDS011;56035;37.534;-122.308;2022-10-16T00:46:12;12.13;;;6.60;;
68985;SDS011;56035;37.534;-122.308;2022-10-16T00:49:19;10.13;;;6.20;;
68985;SDS011;56035;37.534;-122.308;2022-10-16T00:51:41;11.60;;;6.90;;
68985;SDS011;56035;37.534;-122.308;2022-10-16T00:54:31;12.98;;;7.47;;
68985;SDS011;56035;37.534;-122.308;2022-10-16T00:57:01;9.98;;;6.35;;
68985;SDS011;56035;37.534;-122.308;2022-10-16T00:59:31;15.73;;;6.75;;
68985;SDS011;56035;37.534;-122.308;2022-10-16T01:02:00;12.30;;;6.80;;
68985;SDS011;56035;37.534;-122.308;2022-10-16T01:04:50;11.53;;;6.10;;
68985;SDS011;56035;37.534;-122.308;2022-10-16T01:07:20;10.30;;;6.30;;
68985;SDS011;56035;37.534;-122.308;2022-10-16T01:10:25;11.23;;;5.60;;
68985;SDS011;56035;37.534;-122.308;2022-10-16T01:13:21;10.40;;;5.60;;
68985;SDS011;56035;37.534;-122.308;2022-10-16T01:16:00;13.57;;;5.95;;
68985;SDS011;56035;37.534;-122.308;2022-10-16T01:18:37;12.75;;;6.57;;
68985;SDS011;56035;37.534;-122.308;2022-10-16T01:21:20;13.48;;;6.82;;
68985;SDS011;56035;37.534;-122.308;2022-10-16T01:24:09;14.68;;;7.15;;
68985;SDS011;56035;37.534;-122.308;2022-10-16T01:29:46;14.30;;;7.60;;
68985;SDS011;56035;37.534;-122.308;2022-10-16T01:32:36;14.43;;;7.30;;
68985;SDS011;56035;37.534;-122.308;2022-10-16T01:35:31;17.52;;;7.55;;
68985;SDS011;56035;37.534;-122.308;2022-10-16T01:41:33;16.33;;;8.35;;
68985;SDS011;56035;37.534;-122.308;2022-10-16T01:44:06;16.10;;;7.95;;
68985;SDS011;56035;37.534;-122.308;2022-10-16T01:46:43;16.85;;;7.95;;
68985;SDS011;56035;37.534;-122.308;2022-10-16T01:49:12;13.93;;;7.43;;
68985;SDS011;56035;37.534;-122.308;2022-10-16T01:51:39;13.97;;;7.37;;
68985;SDS011;56035;37.534;-122.308;2022-10-16T01:54:10;13.98;;;7.68;;
68985;SDS011;56035;37.534;-122.308;2022-10-16T01:56:39;15.55;;;7.90;;
68985;SDS011;56035;37.534;-122.308;2022-10-16T01:59:08;14.23;;;8.15;;
68985;SDS011;56035;37.534;-122.308;2022-10-16T02:01:38;16.60;;;8.03;;
68985;SDS011;56035;37.534;-122.308;2022-10-16T02:04:11;18.03;;;8.60;;
68985;SDS011;56035;37.534;-122.308;2022-10-16T02:06:52;15.55;;;8.15;;
68985;SDS011;56035;37.534;-122.308;2022-10-16T02:09:19;18.17;;;8.60;;
68985;SDS011;56035;37.534;-122.308;2022-10-16T02:11:45;20.25;;;8.70;;
68985;SDS011;56035;37.534;-122.308;2022-10-16T02:14:12;14.68;;;8.35;;
68985;SDS011;56035;37.534;-122.308;2022-10-16T02:16:39;16.90;;;8.60;;
68985;SDS011;56035;37.534;-122.308;2022-10-16T02:19:10;20.42;;;8.68;;
68985;SDS011;56035;37.534;-122.308;2022-10-16T02:21:45;18.27;;;8.87;;
68985;SDS011;56035;37.534;-122.308;2022-10-16T02:24:50;16.63;;;9.20;;
68985;SDS011;56035;37.534;-122.308;2022-10-16T02:27:27;16.58;;;7.80;;
68985;SDS011;56035;37.534;-122.308;2022-10-16T02:30:36;17.33;;;8.38;;
68985;SDS011;56035;37.534;-122.308;2022-10-16T02:33:05;18.38;;;8.48;;
68985;SDS011;56035;37.534;-122.308;2022-10-16T02:35:35;20.98;;;8.88;;
68985;SDS011;56035;37.534;-122.308;2022-10-16T02:38:02;15.93;;;8.07;;
68985;SDS011;56035;37.534;-122.308;2022-10-16T02:40:29;17.23;;;8.50;;
68985;SDS011;56035;37.534;-122.308;2022-10-16T02:42:56;25.98;;;15.88;;
68985;SDS011;56035;37.534;-122.308;2022-10-16T02:45:22;26.35;;;14.05;;
68985;SDS011;56035;37.534;-122.308;2022-10-16T02:50:15;27.02;;;15.50;;
68985;SDS011;56035;37.534;-122.308;2022-10-16T02:52:41;20.15;;;13.30;;
68985;SDS011;56035;37.534;-122.308;2022-10-16T02:55:08;18.25;;;9.15;;
68985;SDS011;56035;37.534;-122.308;2022-10-16T02:57:34;14.82;;;8.75;;
68985;SDS011;56035;37.534;-122.308;2022-10-16T03:00:03;14.13;;;7.93;;
68985;SDS011;56035;37.534;-122.308;2022-10-16T03:02:30;12.97;;;7.23;;
68985;SDS011;56035;37.534;-122.308;2022-10-16T03:04:56;18.05;;;8.15;;
68985;SDS011;56035;37.534;-122.308;2022-10-16T03:07:22;12.93;;;7.18;;
68985;SDS011;56035;37.534;-122.308;2022-10-16T03:09:48;16.25;;;7.32;;
68985;SDS011;56035;37.534;-122.308;2022-10-16T03:12:15;13.05;;;6.60;;
68985;SDS011;56035;37.534;-122.308;2022-10-16T03:14:41;11.55;;;6.95;;
68985;SDS011;56035;37.534;-122.308;2022-10-16T03:17:07;11.07;;;6.50;;
68985;SDS011;56035;37.534;-122.308;2022-10-16T03:19:33;14.73;;;7.28;;
68985;SDS011;56035;37.534;-122.308;2022-10-16T03:22:01;15.87;;;7.67;;
68985;SDS011;56035;37.534;-122.308;2022-10-16T03:24:27;16.10;;;8.05;;
68985;SDS011;56035;37.534;-122.308;2022-10-16T03:26:53;16.10;;;7.55;;
68985;SDS011;56035;37.534;-122.308;2022-10-16T03:29:19;15.50;;;7.93;;
68985;SDS011;56035;37.534;-122.308;2022-10-16T03:31:46;12.52;;;6.93;;
68985;SDS011;56035;37.534;-122.308;2022-10-16T03:34:14;15.63;;;7.47;;
68985;SDS011;56035;37.534;-122.308;2022-10-16T03:36:41;14.50;;;7.45;;
68985;SDS011;56035;37.534;-122.308;2022-10-16T03:39:07;14.07;;;7.50;;
68985;SDS011;56035;37.534;-122.308;2022-10-16T03:41:33;11.27;;;7.07;;
68985;SDS011;56035;37.534;-122.308;2022-10-16T03:43:59;13.88;;;7.85;;
68985;SDS011;56035;37.534;-122.308;2022-10-16T03:46:25;13.38;;;7.40;;
68985;SDS011;56035;37.534;-122.308;2022-10-16T03:48:51;19.75;;;8.60;;
68985;SDS011;56035;37.534;-122.308;2022-10-16T03:51:17;15.40;;;7.78;;
68985;SDS011;56035;37.534;-122.308;2022-10-16T03:53:43;16.27;;;7.57;;
68985;SDS011;56035;37.534;-122.308;2022-10-16T03:56:09;15.82;;;7.75;;
68985;SDS011;56035;37.534;-122.308;2022-10-16T03:58:36;16.50;;;7.50;;
68985;SDS011;56035;37.534;-122.308;2022-10-16T04:01:02;18.60;;;8.00;;
68985;SDS011;56035;37.534;-122.308;2022-10-16T04:03:28;16.90;;;8.63;;
68985;SDS011;56035;37.534;-122.308;2022-10-16T04:05:54;15.85;;;7.82;;
68985;SDS011;56035;37.534;-122.308;2022-10-16T04:08:20;15.45;;;7.43;;
68985;SDS011;56035;37.534;-122.308;2022-10-16T04:10:47;21.50;;;8.05;;
68985;SDS011;56035;37.534;-122.308;2022-10-16T04:13:13;18.65;;;8.30;;
68985;SDS011;56035;37.534;-122.308;2022-10-16T04:15:39;20.27;;;8.50;;
68985;SDS011;56035;37.534;-122.308;2022-10-16T04:18:06;15.10;;;8.50;;
68985;SDS011;56035;37.534;-122.308;2022-10-16T04:20:32;17.48;;;8.40;;
68985;SDS011;56035;37.534;-122.308;2022-10-16T04:22:59;15.80;;;7.83;;
68985;SDS011;56035;37.534;-122.308;2022-10-16T04:25:25;18.92;;;7.95;;
68985;SDS011;56035;37.534;-122.308;2022-10-16T04:27:55;15.00;;;7.68;;
68985;SDS011;56035;37.534;-122.308;2022-10-16T04:30:21;17.80;;;8.07;;
68985;SDS011;56035;37.534;-122.308;2022-10-16T04:32:48;18.35;;;8.55;;
68985;SDS011;56035;37.534;-122.308;2022-10-16T04:35:15;17.30;;;8.23;;
68985;SDS011;56035;37.534;-122.308;2022-10-16T04:37:42;14.73;;;7.23;;
68985;SDS011;56035;37.534;-122.308;2022-10-16T04:40:09;16.35;;;7.63;;
68985;SDS011;56035;37.534;-122.308;2022-10-16T04:42:35;18.42;;;7.97;;
68985;SDS011;56035;37.534;-122.308;2022-10-16T04:45:01;17.58;;;8.68;;
68985;SDS011;56035;37.534;-122.308;2022-10-16T04:47:28;14.00;;;7.85;;
68985;SDS011;56035;37.534;-122.308;2022-10-16T04:49:54;13.55;;;8.05;;
68985;SDS011;56035;37.534;-122.308;2022-10-16T04:52:22;11.77;;;7.03;;
68985;SDS011;56035;37.534;-122.308;2022-10-16T04:54:50;15.83;;;7.73;;
68985;SDS011;56035;37.534;-122.308;2022-10-16T04:57:17;15.73;;;8.07;;
68985;SDS011;56035;37.534;-122.308;2022-10-16T04:59:43;17.77;;;7.93;;
68985;SDS011;56035;37.534;-122.308;2022-10-16T05:02:09;14.90;;;7.57;;
68985;SDS011;56035;37.534;-122.308;2022-10-16T05:04:35;14.98;;;7.95;;
68985;SDS011;56035;37.534;-122.308;2022-10-16T05:07:01;18.17;;;7.95;;
68985;SDS011;56035;37.534;-122.308;2022-10-16T05:09:28;15.57;;;7.38;;
68985;SDS011;56035;37.534;-122.308;2022-10-16T05:11:54;18.23;;;7.85;;
68985;SDS011;56035;37.534;-122.308;2022-10-16T05:14:20;14.77;;;7.43;;
68985;SDS011;56035;37.534;-122.308;2022-10-16T05:16:46;14.60;;;7.55;;
68985;SDS011;56035;37.534;-122.308;2022-10-16T05:19:13;14.33;;;7.70;;
68985;SDS011;56035;37.534;-122.308;2022-10-16T05:21:39;16.73;;;7.72;;
68985;SDS011;56035;37.534;-122.308;2022-10-16T05:24:05;15.90;;;8.20;;
68985;SDS011;56035;37.534;-122.308;2022-10-16T05:26:31;15.85;;;7.97;;
68985;SDS011;56035;37.534;-122.308;2022-10-16T05:28:57;16.92;;;7.85;;
68985;SDS011;56035;37.534;-122.308;2022-10-16T05:31:24;16.75;;;8.23;;
68985;SDS011;56035;37.534;-122.308;2022-10-16T05:33:50;18.45;;;8.00;;
68985;SDS011;56035;37.534;-122.308;2022-10-16T05:36:16;20.00;;;8.10;;
68985;SDS011;56035;37.534;-122.308;2022-10-16T05:38:43;14.63;;;6.78;;
68985;SDS011;56035;37.534;-122.308;2022-10-16T05:41:09;15.52;;;7.50;;
68985;SDS011;56035;37.534;-122.308;2022-10-16T05:43:56;14.15;;;7.63;;
68985;SDS011;56035;37.534;-122.308;2022-10-16T05:46:22;16.27;;;8.57;;
68985;SDS011;56035;37.534;-122.308;2022-10-16T05:48:51;15.95;;;7.55;;
68985;SDS011;56035;37.534;-122.308;2022-10-16T05:51:18;13.47;;;7.20;;
68985;SDS011;56035;37.534;-122.308;2022-10-16T05:53:44;13.65;;;7.72;;
68985;SDS011;56035;37.534;-122.308;2022-10-16T05:56:10;15.73;;;8.00;;
68985;SDS011;56035;37.534;-122.308;2022-10-16T05:58:38;14.88;;;7.80;;
68985;SDS011;56035;37.534;-122.308;2022-10-16T06:01:06;14.73;;;7.87;;
68985;SDS011;56035;37.534;-122.308;2022-10-16T06:03:35;14.43;;;7.37;;
68985;SDS011;56035;37.534;-122.308;2022-10-16T06:06:08;16.55;;;8.65;;
68985;SDS011;56035;37.534;-122.308;2022-10-16T06:08:36;13.70;;;7.07;;
68985;SDS011;56035;37.534;-122.308;2022-10-16T06:11:03;17.63;;;8.20;;
68985;SDS011;56035;37.534;-122.308;2022-10-16T06:13:30;15.30;;;7.57;;
68985;SDS011;56035;37.534;-122.308;2022-10-16T06:15:57;14.43;;;7.18;;
68985;SDS011;56035;37.534;-122.308;2022-10-16T06:18:25;15.25;;;7.35;;
68985;SDS011;56035;37.534;-122.308;2022-10-16T06:20:51;14.63;;;7.07;;
68985;SDS011;56035;37.534;-122.308;2022-10-16T06:23:18;17.10;;;7.95;;
68985;SDS011;56035;37.534;-122.308;2022-10-16T06:25:44;17.08;;;8.00;;
68985;SDS011;56035;37.534;-122.308;2022-10-16T06:28:10;15.52;;;7.47;;
68985;SDS011;56035;37.534;-122.308;2022-10-16T06:30:36;18.63;;;7.50;;
68985;SDS011;56035;37.534;-122.308;2022-10-16T06:33:02;19.05;;;7.13;;
68985;SDS011;56035;37.534;-122.308;2022-10-16T06:35:29;17.75;;;7.88;;
68985;SDS011;56035;37.534;-122.308;2022-10-16T06:37:57;12.73;;;7.13;;
68985;SDS011;56035;37.534;-122.308;2022-10-16T06:40:23;16.20;;;7.80;;
68985;SDS011;56035;37.534;-122.308;2022-10-16T06:42:50;12.93;;;6.95;;
68985;SDS011;56035;37.534;-122.308;2022-10-16T06:45:17;13.02;;;7.43;;
68985;SDS011;56035;37.534;-122.308;2022-10-16T06:47:43;17.52;;;7.47;;
68985;SDS011;56035;37.534;-122.308;2022-10-16T06:50:09;16.42;;;7.28;;
68985;SDS011;56035;37.534;-122.308;2022-10-16T06:52:35;18.90;;;7.40;;
68985;SDS011;56035;37.534;-122.308;2022-10-16T06:55:01;13.13;;;7.22;;
68985;SDS011;56035;37.534;-122.308;2022-10-16T06:57:28;13.30;;;7.10;;
68985;SDS011;56035;37.534;-122.308;2022-10-16T06:59:54;13.73;;;6.95;;
68985;SDS011;56035;37.534;-122.308;2022-10-16T07:02:20;15.57;;;7.40;;
68985;SDS011;56035;37.534;-122.308;2022-10-16T07:04:47;14.52;;;7.22;;
68985;SDS011;56035;37.534;-122.308;2022-10-16T07:07:13;16.35;;;7.57;;
68985;SDS011;56035;37.534;-122.308;2022-10-16T07:09:40;16.17;;;7.60;;
68985;SDS011;56035;37.534;-122.308;2022-10-16T07:14:31;14.10;;;7.45;;
68985;SDS011;56035;37.534;-122.308;2022-10-16T07:16:58;13.40;;;7.38;;
68985;SDS011;56035;37.534;-122.308;2022-10-16T07:19:24;16.05;;;7.43;;
68985;SDS011;56035;37.534;-122.308;2022-10-16T07:21:50;13.63;;;6.75;;
68985;SDS011;56035;37.534;-122.308;2022-10-16T07:24:16;13.23;;;6.43;;
68985;SDS011;56035;37.534;-122.308;2022-10-16T07:26:44;14.40;;;6.90;;
68985;SDS011;56035;37.534;-122.308;2022-10-16T07:29:12;15.88;;;7.13;;
68985;SDS011;56035;37.534;-122.308;2022-10-16T07:31:40;16.85;;;7.47;;
68985;SDS011;56035;37.534;-122.308;2022-10-16T07:34:07;10.83;;;6.40;;
68985;SDS011;56035;37.534;-122.308;2022-10-16T07:38:59;12.70;;;6.60;;
68985;SDS011;56035;37.534;-122.308;2022-10-16T07:41:26;14.68;;;7.35;;
68985;SDS011;56035;37.534;-122.308;2022-10-16T07:43:53;12.93;;;7.17;;
68985;SDS011;56035;37.534;-122.308;2022-10-16T07:46:22;13.80;;;7.15;;
68985;SDS011;56035;37.534;-122.308;2022-10-16T07:48:48;12.52;;;6.63;;
68985;SDS011;56035;37.534;-122.308;2022-10-16T07:51:16;16.05;;;7.93;;
68985;SDS011;56035;37.534;-122.308;2022-10-16T07:53:43;12.20;;;6.63;;
68985;SDS011;56035;37.534;-122.308;2022-10-16T07:56:10;17.05;;;7.40;;
68985;SDS011;56035;37.534;-122.308;2022-10-16T07:58:37;16.90;;;7.55;;
68985;SDS011;56035;37.534;-122.308;2022-10-16T08:01:04;17.70;;;7.78;;
68985;SDS011;56035;37.534;-122.308;2022-10-16T08:03:33;17.30;;;7.18;;
68985;SDS011;56035;37.534;-122.308;2022-10-16T08:08:26;15.50;;;7.10;;
68985;SDS011;56035;37.534;-122.308;2022-10-16T08:10:52;15.40;;;6.72;;
68985;SDS011;56035;37.534;-122.308;2022-10-16T08:13:19;16.13;;;7.07;;
68985;SDS011;56035;37.534;-122.308;2022-10-16T08:15:46;14.05;;;7.15;;
68985;SDS011;56035;37.534;-122.308;2022-10-16T08:18:13;14.45;;;6.75;;
68985;SDS011;56035;37.534;-122.308;2022-10-16T08:20:40;14.10;;;7.30;;
68985;SDS011;56035;37.534;-122.308;2022-10-16T08:23:09;17.90;;;7.07;;
68985;SDS011;56035;37.534;-122.308;2022-10-16T08:25:37;14.40;;;6.83;;
68985;SDS011;56035;37.534;-122.308;2022-10-16T08:28:03;17.98;;;7.50;;
68985;SDS011;56035;37.534;-122.308;2022-10-16T08:30:33;13.35;;;6.85;;
68985;SDS011;56035;37.534;-122.308;2022-10-16T08:32:59;17.90;;;7.32;;
68985;SDS011;56035;37.534;-122.308;2022-10-16T08:35:26;18.92;;;7.80;;
68985;SDS011;56035;37.534;-122.308;2022-10-16T08:37:52;14.13;;;7.22;;
68985;SDS011;56035;37.534;-122.308;2022-10-16T08:40:20;16.35;;;7.47;;
68985;SDS011;56035;37.534;-122.308;2022-10-16T08:45:33;14.15;;;7.15;;
68985;SDS011;56035;37.534;-122.308;2022-10-16T08:51:20;16.60;;;6.97;;
68985;SDS011;56035;37.534;-122.308;2022-10-16T08:53:51;12.02;;;6.97;;
68985;SDS011;56035;37.534;-122.308;2022-10-16T08:56:29;15.02;;;6.78;;
68985;SDS011;56035;37.534;-122.308;2022-10-16T08:58:55;15.25;;;8.23;;
68985;SDS011;56035;37.534;-122.308;2022-10-16T09:01:25;13.65;;;7.18;;
68985;SDS011;56035;37.534;-122.308;2022-10-16T09:04:47;14.55;;;7.03;;
68985;SDS011;56035;37.534;-122.308;2022-10-16T09:12:39;15.52;;;8.13;;
68985;SDS011;56035;37.534;-122.308;2022-10-16T09:18:04;21.00;;;8.25;;
68985;SDS011;56035;37.534;-122.308;2022-10-16T09:20:44;18.23;;;8.40;;
68985;SDS011;56035;37.534;-122.308;2022-10-16T09:23:21;18.17;;;8.63;;
68985;SDS011;56035;37.534;-122.308;2022-10-16T09:25:52;16.98;;;7.75;;
68985;SDS011;56035;37.534;-122.308;2022-10-16T09:28:20;17.02;;;8.07;;
68985;SDS011;56035;37.534;-122.308;2022-10-16T09:30:46;17.10;;;7.85;;
68985;SDS011;56035;37.534;-122.308;2022-10-16T09:33:17;15.98;;;7.55;;
68985;SDS011;56035;37.534;-122.308;2022-10-16T09:35:47;16.80;;;8.18;;
68985;SDS011;56035;37.534;-122.308;2022-10-16T09:38:24;18.48;;;7.95;;
68985;SDS011;56035;37.534;-122.308;2022-10-16T09:40:58;18.27;;;9.43;;
68985;SDS011;56035;37.534;-122.308;2022-10-16T09:46:36;17.25;;;8.50;;
68985;SDS011;56035;37.534;-122.308;2022-10-16T09:49:05;18.58;;;8.88;;
68985;SDS011;56035;37.534;-122.308;2022-10-16T09:51:49;16.92;;;9.27;;
68985;SDS011;56035;37.534;-122.308;2022-10-16T09:54:17;18.10;;;9.00;;
68985;SDS011;56035;37.534;-122.308;2022-10-16T09:56:45;14.10;;;9.10;;
68985;SDS011;56035;37.534;-122.308;2022-10-16T09:59:15;24.30;;;8.73;;
68985;SDS011;56035;37.534;-122.308;2022-10-16T10:01:45;17.60;;;9.88;;
68985;SDS011;56035;37.534;-122.308;2022-10-16T10:04:20;19.05;;;9.85;;
68985;SDS011;56035;37.534;-122.308;2022-10-16T10:06:48;20.77;;;11.23;;
68985;SDS011;56035;37.534;-122.308;2022-10-16T10:09:16;21.27;;;11.13;;
68985;SDS011;56035;37.534;-122.308;2022-10-16T10:14:25;24.48;;;11.43;;
68985;SDS011;56035;37.534;-122.308;2022-10-16T10:17:14;21.00;;;12.30;;
68985;SDS011;56035;37.534;-122.308;2022-10-16T10:19:49;20.13;;;11.82;;
68985;SDS011;56035;37.534;-122.308;2022-10-16T10:24:44;22.50;;;13.32;;
68985;SDS011;56035;37.534;-122.308;2022-10-16T10:27:19;25.50;;;14.38;;
68985;SDS011;56035;37.534;-122.308;2022-10-16T10:29:53;27.45;;;14.27;;
68985;SDS011;56035;37.534;-122.308;2022-10-16T10:35:11;26.98;;;14.38;;
68985;SDS011;56035;37.534;-122.308;2022-10-16T10:40:59;28.58;;;15.45;;
68985;SDS011;56035;37.534;-122.308;2022-10-16T10:44:03;30.65;;;15.55;;
68985;SDS011;56035;37.534;-122.308;2022-10-16T10:46:45;30.23;;;15.45;;
68985;SDS011;56035;37.534;-122.308;2022-10-16T10:49:39;25.35;;;15.38;;
68985;SDS011;56035;37.534;-122.308;2022-10-16T11:06:59;28.02;;;15.75;;
68985;SDS011;56035;37.534;-122.308;2022-10-16T11:09:40;25.90;;;15.60;;
68985;SDS011;56035;37.534;-122.308;2022-10-16T11:12:19;28.55;;;15.05;;
68985;SDS011;56035;37.534;-122.308;2022-10-16T11:17:42;25.02;;;15.13;;
68985;SDS011;56035;37.534;-122.308;2022-10-16T11:20:15;26.10;;;14.88;;
68985;SDS011;56035;37.534;-122.308;2022-10-16T11:22:55;27.85;;;14.55;;
68985;SDS011;56035;37.534;-122.308;2022-10-16T11:25:27;27.98;;;14.70;;
68985;SDS011;56035;37.534;-122.308;2022-10-16T11:28:02;25.48;;;14.32;;
68985;SDS011;56035;37.534;-122.308;2022-10-16T11:36:39;25.80;;;14.57;;
68985;SDS011;56035;37.534;-122.308;2022-10-16T11:39:16;24.27;;;13.80;;
68985;SDS011;56035;37.534;-122.308;2022-10-16T11:41:49;28.30;;;13.88;;
68985;SDS011;56035;37.534;-122.308;2022-10-16T11:47:16;24.65;;;14.10;;
68985;SDS011;56035;37.534;-122.308;2022-10-16T11:55:58;25.42;;;13.15;;
68985;SDS011;56035;37.534;-122.308;2022-10-16T11:58:27;22.33;;;13.23;;
68985;SDS011;56035;37.534;-122.308;2022-10-16T12:03:38;25.65;;;14.35;;
68985;SDS011;56035;37.534;-122.308;2022-10-16T12:09:15;25.55;;;12.77;;
68985;SDS011;56035;37.534;-122.308;2022-10-16T12:11:51;25.45;;;13.30;;
68985;SDS011;56035;37.534;-122.308;2022-10-16T12:14:18;22.83;;;12.40;;
68985;SDS011;56035;37.534;-122.308;2022-10-16T12:16:51;27.80;;;14.55;;
68985;SDS011;56035;37.534;-122.308;2022-10-16T12:19:20;24.77;;;12.93;;
68985;SDS011;56035;37.534;-122.308;2022-10-16T12:21:47;24.58;;;13.85;;
68985;SDS011;56035;37.534;-122.308;2022-10-16T12:27:02;24.03;;;12.67;;
68985;SDS011;56035;37.534;-122.308;2022-10-16T12:29:33;24.60;;;13.85;;
68985;SDS011;56035;37.534;-122.308;2022-10-16T12:32:00;24.42;;;12.48;;
68985;SDS011;56035;37.534;-122.308;2022-10-16T12:34:39;21.77;;;12.05;;
68985;SDS011;56035;37.534;-122.308;2022-10-16T12:37:18;24.08;;;12.20;;
68985;SDS011;56035;37.534;-122.308;2022-10-16T12:39:49;23.65;;;11.75;;
68985;SDS011;56035;37.534;-122.308;2022-10-16T12:42:22;18.70;;;11.00;;
68985;SDS011;56035;37.534;-122.308;2022-10-16T12:44:52;23.30;;;12.80;;
68985;SDS011;56035;37.534;-122.308;2022-10-16T12:47:19;20.67;;;11.25;;
68985;SDS011;56035;37.534;-122.308;2022-10-16T12:49:53;23.08;;;11.98;;
68985;SDS011;56035;37.534;-122.308;2022-10-16T12:52:24;24.75;;;10.38;;
68985;SDS011;56035;37.534;-122.308;2022-10-16T12:54:59;19.83;;;10.68;;
68985;SDS011;56035;37.534;-122.308;2022-10-16T13:11:02;22.65;;;11.27;;
68985;SDS011;56035;37.534;-122.308;2022-10-16T13:13:58;19.08;;;10.02;;
68985;SDS011;56035;37.534;-122.308;2022-10-16T13:16:39;19.88;;;9.95;;
68985;SDS011;56035;37.534;-122.308;2022-10-16T13:22:18;17.65;;;9.15;;
68985;SDS011;56035;37.534;-122.308;2022-10-16T13:24:56;21.58;;;10.80;;
68985;SDS011;56035;37.534;-122.308;2022-10-16T13:30:21;17.63;;;9.95;;
68985;SDS011;56035;37.534;-122.308;2022-10-16T13:32:54;19.60;;;10.00;;
68985;SDS011;56035;37.534;-122.308;2022-10-16T13:35:24;17.17;;;9.70;;
68985;SDS011;56035;37.534;-122.308;2022-10-16T13:38:02;18.83;;;9.83;;
68985;SDS011;56035;37.534;-122.308;2022-10-16T13:43:45;19.50;;;10.57;;
68985;SDS011;56035;37.534;-122.308;2022-10-16T13:46:16;15.93;;;9.40;;
68985;SDS011;56035;37.534;-122.308;2022-10-16T13:48:44;21.77;;;10.52;;
68985;SDS011;56035;37.534;-122.308;2022-10-16T13:51:21;17.33;;;9.73;;
68985;SDS011;56035;37.534;-122.308;2022-10-16T13:53:47;23.38;;;10.43;;
68985;SDS011;56035;37.534;-122.308;2022-10-16T13:56:15;20.13;;;9.50;;
68985;SDS011;56035;37.534;-122.308;2022-10-16T13:58:43;18.90;;;10.00;;
68985;SDS011;56035;37.534;-122.308;2022-10-16T14:03:42;18.00;;;10.43;;
68985;SDS011;56035;37.534;-122.308;2022-10-16T14:09:34;20.80;;;9.80;;
68985;SDS011;56035;37.534;-122.308;2022-10-16T14:11:57;21.00;;;9.82;;
68985;SDS011;56035;37.534;-122.308;2022-10-16T14:14:27;19.27;;;9.52;;
68985;SDS011;56035;37.534;-122.308;2022-10-16T14:17:28;14.93;;;8.18;;
68985;SDS011;56035;37.534;-122.308;2022-10-16T14:19:56;18.33;;;8.52;;
68985;SDS011;56035;37.534;-122.308;2022-10-16T14:22:34;16.70;;;8.43;;
68985;SDS011;56035;37.534;-122.308;2022-10-16T14:30:54;16.88;;;7.72;;
68985;SDS011;56035;37.534;-122.308;2022-10-16T14:33:32;18.42;;;7.53;;
68985;SDS011;56035;37.534;-122.308;2022-10-16T14:38:25;17.17;;;7.93;;
68985;SDS011;56035;37.534;-122.308;2022-10-16T14:40:51;13.00;;;6.60;;
68985;SDS011;56035;37.534;-122.308;2022-10-16T14:43:22;13.63;;;7.30;;
68985;SDS011;56035;37.534;-122.308;2022-10-16T14:45:58;15.63;;;7.75;;
68985;SDS011;56035;37.534;-122.308;2022-10-16T14:48:24;16.77;;;7.65;;
68985;SDS011;56035;37.534;-122.308;2022-10-16T14:50:50;15.10;;;7.45;;
68985;SDS011;56035;37.534;-122.308;2022-10-16T14:53:17;14.10;;;7.30;;
68985;SDS011;56035;37.534;-122.308;2022-10-16T14:58:19;15.93;;;7.65;;
68985;SDS011;56035;37.534;-122.308;2022-10-16T15:00:48;15.48;;;8.27;;
68985;SDS011;56035;37.534;-122.308;2022-10-16T15:03:15;16.55;;;7.68;;
68985;SDS011;56035;37.534;-122.308;2022-10-16T15:05:41;15.88;;;7.88;;
68985;SDS011;56035;37.534;-122.308;2022-10-16T15:08:07;13.27;;;7.88;;
68985;SDS011;56035;37.534;-122.308;2022-10-16T15:10:35;16.33;;;7.50;;
68985;SDS011;56035;37.534;-122.308;2022-10-16T15:13:06;14.13;;;6.85;;
68985;SDS011;56035;37.534;-122.308;2022-10-16T15:15:38;17.27;;;7.60;;
68985;SDS011;56035;37.534;-122.308;2022-10-16T15:18:14;13.40;;;7.03;;
68985;SDS011;56035;37.534;-122.308;2022-10-16T15:20:45;20.25;;;7.55;;
68985;SDS011;56035;37.534;-122.308;2022-10-16T15:23:20;15.23;;;7.17;;
68985;SDS011;56035;37.534;-122.308;2022-10-16T15:25:52;19.85;;;7.35;;
68985;SDS011;56035;37.534;-122.308;2022-10-16T15:28:20;17.77;;;7.30;;
68985;SDS011;56035;37.534;-122.308;2022-10-16T15:30:49;14.60;;;6.72;;
68985;SDS011;56035;37.534;-122.308;2022-10-16T15:33:17;14.18;;;6.60;;
68985;SDS011;56035;37.534;-122.308;2022-10-16T15:35:46;15.88;;;6.43;;
68985;SDS011;56035;37.534;-122.308;2022-10-16T15:38:13;14.27;;;6.30;;
68985;SDS011;56035;37.534;-122.308;2022-10-16T15:40:40;13.88;;;5.95;;
68985;SDS011;56035;37.534;-122.308;2022-10-16T15:43:07;13.73;;;5.78;;
68985;SDS011;56035;37.534;-122.308;2022-10-16T15:45:34;11.98;;;6.85;;
68985;SDS011;56035;37.534;-122.308;2022-10-16T15:48:00;13.63;;;5.75;;
68985;SDS011;56035;37.534;-122.308;2022-10-16T15:50:27;16.05;;;6.95;;
68985;SDS011;56035;37.534;-122.308;2022-10-16T15:52:56;12.32;;;6.05;;
68985;SDS011;56035;37.534;-122.308;2022-10-16T15:55:22;14.55;;;6.72;;
68985;SDS011;56035;37.534;-122.308;2022-10-16T15:57:49;13.52;;;6.45;;
68985;SDS011;56035;37.534;-122.308;2022-10-16T16:00:16;12.15;;;5.80;;
68985;SDS011;56035;37.534;-122.308;2022-10-16T16:02:49;14.15;;;6.43;;
68985;SDS011;56035;37.534;-122.308;2022-10-16T16:05:17;12.27;;;6.47;;
68985;SDS011;56035;37.534;-122.308;2022-10-16T16:10:10;13.63;;;6.40;;
68985;SDS011;56035;37.534;-122.308;2022-10-16T16:15:03;14.60;;;5.40;;
68985;SDS011;56035;37.534;-122.308;2022-10-16T16:17:32;15.15;;;6.20;;
68985;SDS011;56035;37.534;-122.308;2022-10-16T16:19:59;10.63;;;5.97;;
68985;SDS011;56035;37.534;-122.308;2022-10-16T16:22:25;15.52;;;6.63;;
68985;SDS011;56035;37.534;-122.308;2022-10-16T16:24:51;12.48;;;6.13;;